sensor_id;sensor_type;location;lat;lon;timestamp;pressure;altitude;pressure_sealevel;temperature;humidity
2405;BME280;1213;43.206;27.922;2022-07-24T00:01:56;101335.69;;;22.95;100.00
2405;BME280;1213;43.206;27.922;2022-07-24T00:04:21;101336.22;;;22.90;100.00
2405;BME280;1213;43.206;27.922;2022-07-24T00:06:47;101329.81;;;23.00;100.00
2405;BME280;1213;43.206;27.922;2022-07-24T00:09:12;101327.16;;;23.00;100.00
2405;BME280;1213;43.206;27.922;2022-07-24T00:11:38;101324.13;;;22.94;100.00
2405;BME280;1213;43.206;27.922;2022-07-24T00:14:03;101328.16;;;22.90;100.00
2405;BME280;1213;43.206;27.922;2022-07-24T00:16:29;101328.13;;;22.82;100.00
2405;BME280;1213;43.206;27.922;2022-07-24T00:18:55;101320.09;;;22.82;100.00
2405;BME280;1213;43.206;27.922;2022-07-24T00:21:21;101328.97;;;22.83;100.00
2405;BME280;1213;43.206;27.922;2022-07-24T00:23:46;101329.47;;;22.78;100.00
2405;BME280;1213;43.206;27.922;2022-07-24T00:26:12;101330.13;;;22.80;100.00
2405;BME280;1213;43.206;27.922;2022-07-24T00:28:38;101330.47;;;22.77;100.00
2405;BME280;1213;43.206;27.922;2022-07-24T00:31:04;101327.44;;;22.80;100.00
2405;BME280;1213;43.206;27.922;2022-07-24T00:33:29;101313.72;;;22.75;100.00
2405;BME280;1213;43.206;27.922;2022-07-24T00:35:55;101318.09;;;22.68;100.00
2405;BME280;1213;43.206;27.922;2022-07-24T00:38:20;101319.09;;;22.75;100.00
2405;BME280;1213;43.206;27.922;2022-07-24T00:40:46;101321.25;;;22.71;100.00
2405;BME280;1213;43.206;27.922;2022-07-24T00:43:11;101313.56;;;22.77;100.00
2405;BME280;1213;43.206;27.922;2022-07-24T00:45:38;101312.72;;;22.68;100.00
2405;BME280;1213;43.206;27.922;2022-07-24T00:48:04;101310.53;;;22.63;100.00
2405;BME280;1213;43.206;27.922;2022-07-24T00:50:30;101305.34;;;22.70;100.00
2405;BME280;1213;43.206;27.922;2022-07-24T00:52:56;101310.34;;;22.73;100.00
2405;BME280;1213;43.206;27.922;2022-07-24T00:55:23;101302.00;;;22.68;100.00
2405;BME280;1213;43.206;27.922;2022-07-24T00:57:48;101297.63;;;22.59;100.00
2405;BME280;1213;43.206;27.922;2022-07-24T01:00:16;101293.28;;;22.66;100.00
2405;BME280;1213;43.206;27.922;2022-07-24T01:02:42;101296.97;;;22.65;100.00
2405;BME280;1213;43.206;27.922;2022-07-24T01:05:09;101296.31;;;22.63;100.00
2405;BME280;1213;43.206;27.922;2022-07-24T01:07:36;101297.13;;;22.55;100.00
2405;BME280;1213;43.206;27.922;2022-07-24T01:10:02;101285.94;;;22.68;100.00
2405;BME280;1213;43.206;27.922;2022-07-24T01:12:30;101280.22;;;22.55;100.00
2405;BME280;1213;43.206;27.922;2022-07-24T01:14:56;101283.09;;;22.53;100.00
2405;BME280;1213;43.206;27.922;2022-07-24T01:17:22;101283.09;;;22.53;100.00
2405;BME280;1213;43.206;27.922;2022-07-24T01:19:47;101276.53;;;22.64;100.00
2405;BME280;1213;43.206;27.922;2022-07-24T01:22:13;101282.56;;;22.50;100.00
2405;BME280;1213;43.206;27.922;2022-07-24T01:24:38;101278.03;;;22.50;100.00
2405;BME280;1213;43.206;27.922;2022-07-24T01:27:04;101272.38;;;22.45;100.00
2405;BME280;1213;43.206;27.922;2022-07-24T01:29:30;101273.22;;;22.46;100.00
2405;BME280;1213;43.206;27.922;2022-07-24T01:31:55;101279.22;;;22.39;100.00
2405;BME280;1213;43.206;27.922;2022-07-24T01:34:21;101276.19;;;22.42;100.00
2405;BME280;1213;43.206;27.922;2022-07-24T01:36:47;101278.88;;;22.42;100.00
2405;BME280;1213;43.206;27.922;2022-07-24T01:39:12;101271.38;;;22.38;100.00
2405;BME280;1213;43.206;27.922;2022-07-24T01:41:38;101279.22;;;22.39;100.00
2405;BME280;1213;43.206;27.922;2022-07-24T01:44:03;101275.88;;;22.37;100.00
2405;BME280;1213;43.206;27.922;2022-07-24T01:46:29;101272.03;;;22.40;100.00
2405;BME280;1213;43.206;27.922;2022-07-24T01:48:54;101268.81;;;22.36;100.00
2405;BME280;1213;43.206;27.922;2022-07-24T01:51:20;101265.16;;;22.37;100.00
2405;BME280;1213;43.206;27.922;2022-07-24T01:53:45;101264.47;;;22.35;100.00
2405;BME280;1213;43.206;27.922;2022-07-24T01:56:11;101260.13;;;22.34;100.00
2405;BME280;1213;43.206;27.922;2022-07-24T01:58:36;101258.81;;;22.38;100.00
2405;BME280;1213;43.206;27.922;2022-07-24T02:01:05;101252.63;;;22.30;100.00
2405;BME280;1213;43.206;27.922;2022-07-24T02:03:30;101267.66;;;22.31;100.00
2405;BME280;1213;43.206;27.922;2022-07-24T02:05:56;101257.78;;;22.31;100.00
2405;BME280;1213;43.206;27.922;2022-07-24T02:08:21;101260.97;;;22.27;100.00
2405;BME280;1213;43.206;27.922;2022-07-24T02:10:47;101256.63;;;22.26;100.00
2405;BME280;1213;43.206;27.922;2022-07-24T02:13:12;101260.78;;;22.20;100.00
2405;BME280;1213;43.206;27.922;2022-07-24T02:15:38;101260.59;;;22.22;100.00
2405;BME280;1213;43.206;27.922;2022-07-24T02:18:03;101256.59;;;22.18;100.00
2405;BME280;1213;43.206;27.922;2022-07-24T02:20:29;101263.97;;;22.15;100.00
2405;BME280;1213;43.206;27.922;2022-07-24T02:22:55;101258.94;;;22.12;100.00
2405;BME280;1213;43.206;27.922;2022-07-24T02:25:21;101257.44;;;22.10;100.00
2405;BME280;1213;43.206;27.922;2022-07-24T02:27:47;101258.63;;;22.15;100.00
2405;BME280;1213;43.206;27.922;2022-07-24T02:30:17;101263.78;;;22.09;100.00
2405;BME280;1213;43.206;27.922;2022-07-24T02:32:43;101269.97;;;22.09;100.00
2405;BME280;1213;43.206;27.922;2022-07-24T02:35:09;101265.78;;;22.07;100.00
2405;BME280;1213;43.206;27.922;2022-07-24T02:37:39;101266.72;;;21.98;100.00
2405;BME280;1213;43.206;27.922;2022-07-24T02:40:07;101260.53;;;21.97;100.00
2405;BME280;1213;43.206;27.922;2022-07-24T02:42:33;101263.75;;;22.01;100.00
2405;BME280;1213;43.206;27.922;2022-07-24T02:44:58;101270.91;;;21.92;100.00
2405;BME280;1213;43.206;27.922;2022-07-24T02:47:24;101267.91;;;21.95;100.00
2405;BME280;1213;43.206;27.922;2022-07-24T02:49:49;101260.38;;;21.99;100.00
2405;BME280;1213;43.206;27.922;2022-07-24T02:52:15;101261.34;;;21.89;100.00
2405;BME280;1213;43.206;27.922;2022-07-24T02:54:40;101262.06;;;21.92;100.00
2405;BME280;1213;43.206;27.922;2022-07-24T02:57:06;101263.72;;;21.93;100.00
2405;BME280;1213;43.206;27.922;2022-07-24T02:59:31;101251.19;;;21.93;100.00
2405;BME280;1213;43.206;27.922;2022-07-24T03:01:57;101256.50;;;21.85;100.00
2405;BME280;1213;43.206;27.922;2022-07-24T03:04:22;101262.06;;;21.92;100.00
2405;BME280;1213;43.206;27.922;2022-07-24T03:06:48;101263.34;;;21.79;100.00
2405;BME280;1213;43.206;27.922;2022-07-24T03:09:14;101260.66;;;21.79;100.00
2405;BME280;1213;43.206;27.922;2022-07-24T03:11:39;101264.34;;;21.78;100.00
2405;BME280;1213;43.206;27.922;2022-07-24T03:14:05;101258.31;;;21.76;100.00
2405;BME280;1213;43.206;27.922;2022-07-24T03:16:30;101254.66;;;21.77;100.00
2405;BME280;1213;43.206;27.922;2022-07-24T03:18:56;101264.38;;;21.86;100.00
2405;BME280;1213;43.206;27.922;2022-07-24T03:21:21;101262.69;;;21.77;100.00
2405;BME280;1213;43.206;27.922;2022-07-24T03:23:47;101264.63;;;21.67;100.00
2405;BME280;1213;43.206;27.922;2022-07-24T03:26:12;101257.47;;;21.76;100.00
2405;BME280;1213;43.206;27.922;2022-07-24T03:28:38;101259.66;;;21.80;100.00
2405;BME280;1213;43.206;27.922;2022-07-24T03:31:03;101254.16;;;21.90;100.00
2405;BME280;1213;43.206;27.922;2022-07-24T03:33:29;101253.34;;;21.89;100.00
2405;BME280;1213;43.206;27.922;2022-07-24T03:35:55;101245.84;;;21.93;100.00
2405;BME280;1213;43.206;27.922;2022-07-24T03:38:20;101245.31;;;21.98;100.00
2405;BME280;1213;43.206;27.922;2022-07-24T03:40:46;101247.34;;;22.04;100.00
2405;BME280;1213;43.206;27.922;2022-07-24T03:43:12;101245.06;;;22.09;100.00
2405;BME280;1213;43.206;27.922;2022-07-24T03:45:38;101237.03;;;22.17;100.00
2405;BME280;1213;43.206;27.922;2022-07-24T03:48:04;101236.88;;;22.27;100.00
2405;BME280;1213;43.206;27.922;2022-07-24T03:50:30;101236.88;;;22.27;100.00
2405;BME280;1213;43.206;27.922;2022-07-24T03:52:55;101242.56;;;22.32;100.00
2405;BME280;1213;43.206;27.922;2022-07-24T03:55:21;101248.41;;;22.35;100.00
2405;BME280;1213;43.206;27.922;2022-07-24T03:57:47;101245.06;;;22.41;100.00
2405;BME280;1213;43.206;27.922;2022-07-24T04:00:13;101249.94;;;22.46;100.00
2405;BME280;1213;43.206;27.922;2022-07-24T04:02:39;101237.03;;;22.58;100.00
2405;BME280;1213;43.206;27.922;2022-07-24T04:05:05;101241.72;;;22.64;100.00
2405;BME280;1213;43.206;27.922;2022-07-24T04:07:34;101241.22;;;22.68;100.00
2405;BME280;1213;43.206;27.922;2022-07-24T04:09:59;101237.53;;;22.78;100.00
2405;BME280;1213;43.206;27.922;2022-07-24T04:12:25;101239.69;;;22.82;100.00
2405;BME280;1213;43.206;27.922;2022-07-24T04:14:50;101233.53;;;22.90;100.00
2405;BME280;1213;43.206;27.922;2022-07-24T04:17:16;101233.81;;;22.95;100.00
2405;BME280;1213;43.206;27.922;2022-07-24T04:19:41;101228.25;;;23.05;100.00
2405;BME280;1213;43.206;27.922;2022-07-24T04:22:07;101231.94;;;23.12;100.00
2405;BME280;1213;43.206;27.922;2022-07-24T04:24:32;101230.75;;;23.22;100.00
2405;BME280;1213;43.206;27.922;2022-07-24T04:26:58;101233.56;;;23.29;100.00
2405;BME280;1213;43.206;27.922;2022-07-24T04:29:23;101219.28;;;23.37;100.00
2405;BME280;1213;43.206;27.922;2022-07-24T04:31:49;101233.47;;;23.53;100.00
2405;BME280;1213;43.206;27.922;2022-07-24T04:34:14;101239.97;;;23.67;100.00
2405;BME280;1213;43.206;27.922;2022-07-24T04:36:39;101249.19;;;23.73;100.00
2405;BME280;1213;43.206;27.922;2022-07-24T04:39:05;101241.91;;;23.82;100.00
2405;BME280;1213;43.206;27.922;2022-07-24T04:41:30;101242.03;;;23.88;100.00
2405;BME280;1213;43.206;27.922;2022-07-24T04:43:56;101244.66;;;23.96;100.00
2405;BME280;1213;43.206;27.922;2022-07-24T04:46:21;101248.13;;;24.05;100.00
2405;BME280;1213;43.206;27.922;2022-07-24T04:48:47;101247.59;;;24.09;100.00
2405;BME280;1213;43.206;27.922;2022-07-24T04:51:12;101247.06;;;24.14;100.00
2405;BME280;1213;43.206;27.922;2022-07-24T04:53:38;101248.53;;;24.17;100.00
2405;BME280;1213;43.206;27.922;2022-07-24T04:56:04;101258.56;;;24.23;100.00
2405;BME280;1213;43.206;27.922;2022-07-24T04:58:29;101258.19;;;24.34;100.00
2405;BME280;1213;43.206;27.922;2022-07-24T05:00:55;101264.03;;;24.38;100.00
2405;BME280;1213;43.206;27.922;2022-07-24T05:03:20;101256.28;;;24.43;100.00
2405;BME280;1213;43.206;27.922;2022-07-24T05:05:46;101255.56;;;24.49;100.00
2405;BME280;1213;43.206;27.922;2022-07-24T05:08:11;101255.19;;;24.52;100.00
2405;BME280;1213;43.206;27.922;2022-07-24T05:10:37;101259.09;;;24.49;100.00
2405;BME280;1213;43.206;27.922;2022-07-24T05:13:03;101256.66;;;24.54;100.00
2405;BME280;1213;43.206;27.922;2022-07-24T05:15:28;101256.13;;;24.59;100.00
2405;BME280;1213;43.206;27.922;2022-07-24T05:17:54;101256.59;;;24.62;100.00
2405;BME280;1213;43.206;27.922;2022-07-24T05:20:20;101260.41;;;24.68;100.00
2405;BME280;1213;43.206;27.922;2022-07-24T05:22:45;101256.53;;;24.71;100.00
2405;BME280;1213;43.206;27.922;2022-07-24T05:25:10;101256.09;;;24.82;100.00
2405;BME280;1213;43.206;27.922;2022-07-24T05:27:36;101253.22;;;24.83;100.00
2405;BME280;1213;43.206;27.922;2022-07-24T05:30:03;101248.69;;;24.84;100.00
2405;BME280;1213;43.206;27.922;2022-07-24T05:32:30;101247.94;;;24.90;100.00
2405;BME280;1213;43.206;27.922;2022-07-24T05:34:55;101246.56;;;24.94;100.00
2405;BME280;1213;43.206;27.922;2022-07-24T05:37:20;101245.91;;;24.92;100.00
2405;BME280;1213;43.206;27.922;2022-07-24T05:39:46;101247.41;;;24.95;100.00
2405;BME280;1213;43.206;27.922;2022-07-24T05:42:11;101249.34;;;25.01;100.00
2405;BME280;1213;43.206;27.922;2022-07-24T05:44:37;101250.78;;;25.11;100.00
2405;BME280;1213;43.206;27.922;2022-07-24T05:47:02;101237.63;;;25.16;100.00
2405;BME280;1213;43.206;27.922;2022-07-24T05:49:28;101242.63;;;25.20;100.00
2405;BME280;1213;43.206;27.922;2022-07-24T05:51:53;101242.13;;;25.31;100.00
2405;BME280;1213;43.206;27.922;2022-07-24T05:54:19;101240.28;;;25.31;100.00
2405;BME280;1213;43.206;27.922;2022-07-24T05:56:45;101236.13;;;25.29;100.00
2405;BME280;1213;43.206;27.922;2022-07-24T05:59:10;101244.00;;;25.30;100.00
2405;BME280;1213;43.206;27.922;2022-07-24T06:01:36;101244.66;;;25.32;100.00
2405;BME280;1213;43.206;27.922;2022-07-24T06:04:01;101238.50;;;25.38;100.00
2405;BME280;1213;43.206;27.922;2022-07-24T06:06:27;101232.66;;;25.50;100.00
2405;BME280;1213;43.206;27.922;2022-07-24T06:08:53;101240.53;;;25.51;100.00
2405;BME280;1213;43.206;27.922;2022-07-24T06:11:18;101228.41;;;25.40;100.00
2405;BME280;1213;43.206;27.922;2022-07-24T06:13:45;101229.03;;;25.57;100.00
2405;BME280;1213;43.206;27.922;2022-07-24T06:16:11;101228.38;;;25.55;100.00
2405;BME280;1213;43.206;27.922;2022-07-24T06:18:36;101225.19;;;25.66;100.00
2405;BME280;1213;43.206;27.922;2022-07-24T06:21:03;101214.72;;;25.71;100.00
2405;BME280;1213;43.206;27.922;2022-07-24T06:23:28;101213.16;;;25.77;100.00
2405;BME280;1213;43.206;27.922;2022-07-24T06:25:54;101215.97;;;25.90;100.00
2405;BME280;1213;43.206;27.922;2022-07-24T06:28:19;101210.97;;;25.87;100.00
2405;BME280;1213;43.206;27.922;2022-07-24T06:30:45;101221.94;;;25.86;100.00
2405;BME280;1213;43.206;27.922;2022-07-24T06:33:10;101225.69;;;25.91;100.00
2405;BME280;1213;43.206;27.922;2022-07-24T06:35:36;101228.66;;;25.96;100.00
2405;BME280;1213;43.206;27.922;2022-07-24T06:38:02;101220.84;;;26.02;100.00
2405;BME280;1213;43.206;27.922;2022-07-24T06:40:28;101215.34;;;26.10;100.00
2405;BME280;1213;43.206;27.922;2022-07-24T06:42:54;101228.28;;;26.21;100.00
2405;BME280;1213;43.206;27.922;2022-07-24T06:45:19;101219.69;;;26.32;100.00
2405;BME280;1213;43.206;27.922;2022-07-24T06:47:45;101213.28;;;26.33;100.00
2405;BME280;1213;43.206;27.922;2022-07-24T06:50:12;101215.13;;;26.33;100.00
2405;BME280;1213;43.206;27.922;2022-07-24T06:52:37;101209.28;;;26.29;100.00
2405;BME280;1213;43.206;27.922;2022-07-24T06:55:04;101210.78;;;26.32;100.00
2405;BME280;1213;43.206;27.922;2022-07-24T06:57:29;101208.91;;;26.32;100.00
2405;BME280;1213;43.206;27.922;2022-07-24T06:59:55;101205.91;;;26.42;100.00
2405;BME280;1213;43.206;27.922;2022-07-24T07:02:21;101203.84;;;26.44;100.00
2405;BME280;1213;43.206;27.922;2022-07-24T07:04:47;101198.56;;;26.36;100.00
2405;BME280;1213;43.206;27.922;2022-07-24T07:07:12;101198.44;;;26.44;100.00
2405;BME280;1213;43.206;27.922;2022-07-24T07:09:39;101196.00;;;26.49;100.00
2405;BME280;1213;43.206;27.922;2022-07-24T07:12:05;101197.94;;;26.55;100.00
2405;BME280;1213;43.206;27.922;2022-07-24T07:14:30;101188.41;;;26.59;100.00
2405;BME280;1213;43.206;27.922;2022-07-24T07:16:56;101194.69;;;26.66;100.00
2405;BME280;1213;43.206;27.922;2022-07-24T07:19:22;101191.44;;;26.77;100.00
2405;BME280;1213;43.206;27.922;2022-07-24T07:21:48;101186.94;;;26.85;100.00
2405;BME280;1213;43.206;27.922;2022-07-24T07:24:13;101187.34;;;26.88;100.00
2405;BME280;1213;43.206;27.922;2022-07-24T07:26:39;101194.63;;;26.88;100.00
2405;BME280;1213;43.206;27.922;2022-07-24T07:29:04;101185.09;;;26.92;100.00
2405;BME280;1213;43.206;27.922;2022-07-24T07:31:30;101189.66;;;26.91;100.00
2405;BME280;1213;43.206;27.922;2022-07-24T07:33:55;101181.41;;;26.99;100.00
2405;BME280;1213;43.206;27.922;2022-07-24T07:36:22;101190.13;;;27.01;100.00
2405;BME280;1213;43.206;27.922;2022-07-24T07:38:48;101191.88;;;27.09;100.00
2405;BME280;1213;43.206;27.922;2022-07-24T07:41:13;101188.91;;;27.04;100.00
2405;BME280;1213;43.206;27.922;2022-07-24T07:43:39;101193.09;;;27.06;100.00
2405;BME280;1213;43.206;27.922;2022-07-24T07:46:05;101180.59;;;26.99;100.00
2405;BME280;1213;43.206;27.922;2022-07-24T07:48:30;101186.97;;;26.98;100.00
2405;BME280;1213;43.206;27.922;2022-07-24T07:50:56;101178.16;;;27.10;100.00
2405;BME280;1213;43.206;27.922;2022-07-24T07:53:22;101180.28;;;27.15;100.00
2405;BME280;1213;43.206;27.922;2022-07-24T07:55:48;101176.34;;;27.18;100.00
2405;BME280;1213;43.206;27.922;2022-07-24T07:58:18;101168.03;;;27.19;100.00
2405;BME280;1213;43.206;27.922;2022-07-24T08:00:44;101179.31;;;27.29;100.00
2405;BME280;1213;43.206;27.922;2022-07-24T08:03:09;101167.66;;;27.35;100.00
2405;BME280;1213;43.206;27.922;2022-07-24T08:05:35;101160.84;;;27.40;100.00
2405;BME280;1213;43.206;27.922;2022-07-24T08:08:00;101153.84;;;27.52;100.00
2405;BME280;1213;43.206;27.922;2022-07-24T08:10:26;101167.72;;;27.49;100.00
2405;BME280;1213;43.206;27.922;2022-07-24T08:12:51;101163.38;;;27.54;100.00
2405;BME280;1213;43.206;27.922;2022-07-24T08:15:17;101155.69;;;27.58;100.00
2405;BME280;1213;43.206;27.922;2022-07-24T08:17:43;101165.25;;;27.54;100.00
2405;BME280;1213;43.206;27.922;2022-07-24T08:20:09;101170.47;;;27.62;100.00
2405;BME280;1213;43.206;27.922;2022-07-24T08:22:35;101163.06;;;27.77;100.00
2405;BME280;1213;43.206;27.922;2022-07-24T08:25:00;101158.91;;;27.75;100.00
2405;BME280;1213;43.206;27.922;2022-07-24T08:27:26;101162.44;;;27.75;100.00
2405;BME280;1213;43.206;27.922;2022-07-24T08:29:52;101166.38;;;27.79;100.00
2405;BME280;1213;43.206;27.922;2022-07-24T08:32:18;101169.72;;;27.81;100.00
2405;BME280;1213;43.206;27.922;2022-07-24T08:34:43;101171.81;;;27.99;100.00
2405;BME280;1213;43.206;27.922;2022-07-24T08:37:09;101165.16;;;28.08;100.00
2405;BME280;1213;43.206;27.922;2022-07-24T08:39:34;101175.16;;;28.08;100.00
2405;BME280;1213;43.206;27.922;2022-07-24T08:42:00;101173.69;;;27.99;100.00
2405;BME280;1213;43.206;27.922;2022-07-24T08:44:25;101176.97;;;27.87;100.00
2405;BME280;1213;43.206;27.922;2022-07-24T08:46:53;101178.44;;;27.83;100.00
2405;BME280;1213;43.206;27.922;2022-07-24T08:49:19;101175.31;;;27.86;100.00
2405;BME280;1213;43.206;27.922;2022-07-24T08:51:46;101173.25;;;27.95;100.00
2405;BME280;1213;43.206;27.922;2022-07-24T08:54:13;101172.84;;;28.18;100.00
2405;BME280;1213;43.206;27.922;2022-07-24T08:56:41;101172.66;;;28.19;100.00
2405;BME280;1213;43.206;27.922;2022-07-24T08:59:20;101175.34;;;28.26;100.00
2405;BME280;1213;43.206;27.922;2022-07-24T09:01:50;101179.72;;;28.01;100.00
2405;BME280;1213;43.206;27.922;2022-07-24T09:04:38;101183.47;;;28.06;100.00
2405;BME280;1213;43.206;27.922;2022-07-24T09:07:13;101175.97;;;28.22;100.00
2405;BME280;1213;43.206;27.922;2022-07-24T09:09:40;101170.78;;;28.27;100.00
2405;BME280;1213;43.206;27.922;2022-07-24T09:14:41;101175.97;;;28.22;100.00
2405;BME280;1213;43.206;27.922;2022-07-24T09:17:12;101174.31;;;28.20;100.00
2405;BME280;1213;43.206;27.922;2022-07-24T09:22:35;101168.75;;;28.42;100.00
2405;BME280;1213;43.206;27.922;2022-07-24T09:25:09;101166.88;;;28.49;100.00
2405;BME280;1213;43.206;27.922;2022-07-24T09:27:41;101162.25;;;28.56;100.00
2405;BME280;1213;43.206;27.922;2022-07-24T09:30:08;101157.88;;;28.55;100.00
2405;BME280;1213;43.206;27.922;2022-07-24T09:32:34;101155.16;;;28.68;100.00
2405;BME280;1213;43.206;27.922;2022-07-24T09:35:02;101155.38;;;28.60;100.00
2405;BME280;1213;43.206;27.922;2022-07-24T09:37:28;101157.66;;;28.70;100.00
2405;BME280;1213;43.206;27.922;2022-07-24T09:40:05;101160.13;;;28.78;100.00
2405;BME280;1213;43.206;27.922;2022-07-24T09:42:32;101159.91;;;28.93;100.00
2405;BME280;1213;43.206;27.922;2022-07-24T09:45:05;101159.28;;;28.97;100.00
2405;BME280;1213;43.206;27.922;2022-07-24T09:47:34;101158.22;;;28.98;100.00
2405;BME280;1213;43.206;27.922;2022-07-24T09:50:14;101161.13;;;29.04;100.00
2405;BME280;1213;43.206;27.922;2022-07-24T09:52:41;101167.13;;;29.12;100.00
2405;BME280;1213;43.206;27.922;2022-07-24T09:55:20;101159.81;;;29.19;100.00
2405;BME280;1213;43.206;27.922;2022-07-24T09:57:46;101168.13;;;29.24;100.00
2405;BME280;1213;43.206;27.922;2022-07-24T10:00:12;101161.63;;;29.32;100.00
2405;BME280;1213;43.206;27.922;2022-07-24T10:02:38;101165.00;;;29.27;100.00
2405;BME280;1213;43.206;27.922;2022-07-24T10:05:04;101168.53;;;29.28;100.00
2405;BME280;1213;43.206;27.922;2022-07-24T10:07:32;101163.06;;;29.41;100.00
2405;BME280;1213;43.206;27.922;2022-07-24T10:09:59;101157.00;;;29.39;100.00
2405;BME280;1213;43.206;27.922;2022-07-24T10:12:27;101150.13;;;29.43;100.00
2405;BME280;1213;43.206;27.922;2022-07-24T10:14:57;101158.44;;;29.48;100.00
2405;BME280;1213;43.206;27.922;2022-07-24T10:20:41;101154.16;;;29.72;100.00
2405;BME280;1213;43.206;27.922;2022-07-24T10:23:07;101148.84;;;29.84;100.00
2405;BME280;1213;43.206;27.922;2022-07-24T10:25:53;101153.88;;;30.12;100.00
2405;BME280;1213;43.206;27.922;2022-07-24T10:28:38;101152.50;;;30.28;100.00
2405;BME280;1213;43.206;27.922;2022-07-24T10:31:05;101154.63;;;29.94;100.00
2405;BME280;1213;43.206;27.922;2022-07-24T10:33:32;101153.19;;;29.60;100.00
2405;BME280;1213;43.206;27.922;2022-07-24T10:36:00;101149.78;;;29.71;100.00
2405;BME280;1213;43.206;27.922;2022-07-24T10:38:33;101158.47;;;29.80;100.00
2405;BME280;1213;43.206;27.922;2022-07-24T10:41:14;101159.91;;;29.82;100.00
2405;BME280;1213;43.206;27.922;2022-07-24T10:43:40;101160.59;;;29.78;100.00
2405;BME280;1213;43.206;27.922;2022-07-24T10:48:34;101155.88;;;29.92;100.00
2405;BME280;1213;43.206;27.922;2022-07-24T10:51:10;101152.56;;;29.90;100.00
2405;BME280;1213;43.206;27.922;2022-07-24T10:59:11;101155.31;;;29.83;100.00
2405;BME280;1213;43.206;27.922;2022-07-24T11:01:41;101152.56;;;29.90;100.00
2405;BME280;1213;43.206;27.922;2022-07-24T11:09:28;101149.44;;;29.93;100.00
2405;BME280;1213;43.206;27.922;2022-07-24T11:14:23;101147.63;;;30.11;100.00
2405;BME280;1213;43.206;27.922;2022-07-24T11:16:49;101150.78;;;30.08;100.00
2405;BME280;1213;43.206;27.922;2022-07-24T11:21:43;101141.75;;;29.83;100.00
2405;BME280;1213;43.206;27.922;2022-07-24T11:26:58;101141.03;;;29.69;100.00
2405;BME280;1213;43.206;27.922;2022-07-24T11:29:39;101141.69;;;29.65;100.00
2405;BME280;1213;43.206;27.922;2022-07-24T11:32:12;101145.53;;;29.82;100.00
2405;BME280;1213;43.206;27.922;2022-07-24T11:34:48;101134.91;;;30.05;100.00
2405;BME280;1213;43.206;27.922;2022-07-24T11:37:15;101132.44;;;30.29;100.00
2405;BME280;1213;43.206;27.922;2022-07-24T11:39:42;101122.66;;;30.28;100.00
2405;BME280;1213;43.206;27.922;2022-07-24T11:42:14;101124.59;;;30.46;100.00
2405;BME280;1213;43.206;27.922;2022-07-24T11:44:43;101128.13;;;30.64;100.00
2405;BME280;1213;43.206;27.922;2022-07-24T11:47:20;101117.94;;;30.60;100.00
2405;BME280;1213;43.206;27.922;2022-07-24T11:49:48;101123.91;;;30.50;100.00
2405;BME280;1213;43.206;27.922;2022-07-24T11:52:20;101117.88;;;30.48;100.00
2405;BME280;1213;43.206;27.922;2022-07-24T11:54:48;101115.63;;;30.63;100.00
2405;BME280;1213;43.206;27.922;2022-07-24T11:59:47;101109.16;;;30.83;100.00
2405;BME280;1213;43.206;27.922;2022-07-24T12:02:13;101109.13;;;30.64;100.00
2405;BME280;1213;43.206;27.922;2022-07-24T12:04:40;101109.97;;;30.47;100.00
2405;BME280;1213;43.206;27.922;2022-07-24T12:07:13;101114.41;;;30.41;100.00
2405;BME280;1213;43.206;27.922;2022-07-24T12:10:05;101107.91;;;30.42;100.00
2405;BME280;1213;43.206;27.922;2022-07-24T12:12:33;101098.50;;;30.45;100.00
2405;BME280;1213;43.206;27.922;2022-07-24T12:15:13;101098.72;;;30.43;100.00
2405;BME280;1213;43.206;27.922;2022-07-24T12:22:49;101089.22;;;30.16;100.00
2405;BME280;1213;43.206;27.922;2022-07-24T12:25:15;101091.84;;;30.22;100.00
2405;BME280;1213;43.206;27.922;2022-07-24T12:27:43;101091.19;;;30.02;100.00
2405;BME280;1213;43.206;27.922;2022-07-24T12:30:32;101095.31;;;30.04;100.00
2405;BME280;1213;43.206;27.922;2022-07-24T12:35:27;101092.13;;;30.14;100.00
2405;BME280;1213;43.206;27.922;2022-07-24T12:37:54;101088.16;;;30.17;100.00
2405;BME280;1213;43.206;27.922;2022-07-24T12:40:34;101086.50;;;30.34;100.00
2405;BME280;1213;43.206;27.922;2022-07-24T12:43:10;101083.41;;;30.05;100.00
2405;BME280;1213;43.206;27.922;2022-07-24T12:45:37;101082.72;;;30.17;100.00
2405;BME280;1213;43.206;27.922;2022-07-24T12:48:22;101077.00;;;30.25;100.00
2405;BME280;1213;43.206;27.922;2022-07-24T12:51:10;101077.97;;;30.30;100.00
2405;BME280;1213;43.206;27.922;2022-07-24T12:53:39;101077.25;;;30.23;100.00
2405;BME280;1213;43.206;27.922;2022-07-24T12:56:15;101068.75;;;30.38;100.00
2405;BME280;1213;43.206;27.922;2022-07-24T12:58:49;101068.28;;;30.41;100.00
2405;BME280;1213;43.206;27.922;2022-07-24T13:01:14;101061.28;;;30.52;100.00
2405;BME280;1213;43.206;27.922;2022-07-24T13:03:40;101058.72;;;30.38;100.00
2405;BME280;1213;43.206;27.922;2022-07-24T13:06:06;101055.84;;;30.52;100.00
2405;BME280;1213;43.206;27.922;2022-07-24T13:08:32;101058.50;;;30.40;100.00
2405;BME280;1213;43.206;27.922;2022-07-24T13:10:57;101058.25;;;30.42;100.00
2405;BME280;1213;43.206;27.922;2022-07-24T13:13:22;101055.47;;;30.30;100.00
2405;BME280;1213;43.206;27.922;2022-07-24T13:15:48;101051.38;;;30.21;100.00
2405;BME280;1213;43.206;27.922;2022-07-24T13:18:13;101053.06;;;29.97;100.00
2405;BME280;1213;43.206;27.922;2022-07-24T13:20:39;101043.31;;;29.89;100.00
2405;BME280;1213;43.206;27.922;2022-07-24T13:23:04;101042.78;;;29.80;100.00
2405;BME280;1213;43.206;27.922;2022-07-24T13:25:30;101037.97;;;29.82;100.00
2405;BME280;1213;43.206;27.922;2022-07-24T13:27:55;101031.13;;;29.80;100.00
2405;BME280;1213;43.206;27.922;2022-07-24T13:30:21;101036.81;;;29.72;100.00